Bookmark and Share
Track history (hours):
 

Pacific Solarelle

Last reported at 2014-Jan-30 06:04 UTC. Time now 2014-Apr-17 21:54 UTC.
Position N 29°23' W 094°49'.
Warning: this ship's position is months out of date.

Length 180 m; draft 10 m.

Type: Tanker. MMSI: 538003925.

NotesDate/timePositionNaut miles runAvg speedWind from/ knotsBaromVisibWave heightAir tempDewpointWater temp
2014-Jan-30 06:04N 29°23' W 094°49'510.5
2014-Jan-30 05:33N 29°28' W 094°51'1010.1
2014-Jan-30 04:33N 29°37' W 094°57'8 8.4
2014-Jan-30 03:33N 29°44' W 095°02'5 5.3
2014-Jan-30 02:33N 29°44' W 095°09'3 3.0
2014-Jan-30 01:32N 29°45' W 095°12'0 0.0
2014-Jan-30 00:32N 29°45' W 095°12'0 0.0
2014-Jan-29 22:32N 29°45' W 095°12'0 0.0
2014-Jan-29 22:05N 29°45' W 095°12'0 0.0
2014-Jan-29 21:32N 29°45' W 095°12'0 0.0
2014-Jan-29 20:32N 29°45' W 095°12'0 0.0
2014-Jan-29 19:32N 29°45' W 095°12'0 0.0
2014-Jan-29 18:32N 29°45' W 095°12'0 0.0
2014-Jan-29 17:32N 29°45' W 095°12'0 0.0
2014-Jan-29 16:32N 29°45' W 095°12'0 0.0
2014-Jan-29 15:32N 29°45' W 095°12'0 0.0
2014-Jan-29 14:32N 29°45' W 095°12'0 0.0
2014-Jan-29 13:32N 29°45' W 095°12'0 0.0
2014-Jan-29 12:32N 29°45' W 095°12'0 0.0
2014-Jan-29 11:32N 29°45' W 095°12'0 0.0
2014-Jan-29 10:32N 29°45' W 095°12'0 0.0
2014-Jan-29 09:32N 29°45' W 095°12'0 0.0
2014-Jan-29 08:32N 29°45' W 095°12'0 0.0
2014-Jan-29 07:32N 29°45' W 095°12'0 0.0
2014-Jan-29 05:32N 29°45' W 095°12'0 0.0
2014-Jan-29 04:32N 29°45' W 095°12'0 0.0
2014-Jan-29 03:32N 29°45' W 095°12'0 0.0
2014-Jan-29 02:32N 29°45' W 095°12'0 0.0
2014-Jan-29 01:32N 29°45' W 095°12'0 0.0
2014-Jan-29 00:32N 29°45' W 095°12'0 0.0
2014-Jan-28 23:32N 29°45' W 095°12'0 0.0
2014-Jan-28 22:32N 29°45' W 095°12'0 0.0
2014-Jan-28 21:32N 29°45' W 095°12'0 0.0
2014-Jan-28 20:32N 29°45' W 095°12'0 0.0
2014-Jan-28 18:32N 29°45' W 095°12'0 0.0
2014-Jan-28 16:32N 29°45' W 095°12'0 0.0
2014-Jan-28 15:32N 29°45' W 095°12'0 0.0
2014-Jan-28 14:32N 29°45' W 095°12'0 0.0
2014-Jan-28 13:32N 29°45' W 095°12'0 0.0
2014-Jan-28 12:32N 29°45' W 095°12'0 0.0
2014-Jan-28 11:32N 29°45' W 095°12'0 0.0
2014-Jan-28 10:32N 29°45' W 095°12'0 0.0
2014-Jan-28 09:32N 29°45' W 095°12'0 0.0
2014-Jan-28 08:32N 29°45' W 095°12'0 0.0
2014-Jan-28 07:32N 29°45' W 095°12'0 0.0
2014-Jan-28 06:32N 29°45' W 095°12'0 0.0
2014-Jan-28 05:32N 29°45' W 095°12'0 0.0
2014-Jan-28 04:32N 29°45' W 095°12'0 0.0
2014-Jan-28 03:32N 29°45' W 095°12'0 0.0
2014-Jan-28 02:32N 29°45' W 095°12'0 0.1
2014-Jan-28 01:33N 29°44' W 095°12'4 4.3
2014-Jan-28 00:33N 29°44' W 095°07'5 5.4
2014-Jan-27 23:33N 29°43' W 095°01'8 7.8
2014-Jan-27 22:33N 29°36' W 094°57'1010.0
2014-Jan-27 21:33N 29°27' W 094°51'11 9.8
2014-Jan-27 20:27N 29°20' W 094°41'9 1.7
2014-Jan-27 15:15N 29°18' W 094°32'0 0.0
2014-Jan-26 15:30N 29°18' W 094°32'0 0.0
2014-Jan-26 14:33N 29°18' W 094°32'0 0.0
2014-Jan-26 13:06N 29°18' W 094°32'0 0.0
2014-Jan-26 12:30N 29°18' W 094°32'0 0.0
2014-Jan-26 11:30N 29°18' W 094°32'0 0.0
2014-Jan-26 10:27N 29°18' W 094°32'0 0.0
2014-Jan-26 07:30N 29°18' W 094°32'0 0.0
2014-Jan-26 06:33N 29°18' W 094°32'0 0.0
2014-Jan-26 03:27N 29°18' W 094°32'0 0.0
2014-Jan-25 11:30N 29°18' W 094°32'0 0.0
2014-Jan-25 09:06N 29°18' W 094°32'210 4.6
2014-Jan-23 11:16N 30°03' W 090°36'0 0.0
2014-Jan-23 10:31N 30°03' W 090°36'0 0.0
2014-Jan-23 09:31N 30°03' W 090°36'0 0.0
2014-Jan-23 08:13N 30°03' W 090°36'0 0.0
2014-Jan-23 07:31N 30°03' W 090°36'  
2014-Jan-21 02:28N 29°60' W 090°26'0 0.0
2014-Jan-20 16:16N 29°60' W 090°26'0 0.0
2014-Jan-20 15:31N 29°60' W 090°26'0 0.0
2014-Jan-20 14:31N 29°60' W 090°26'0 0.0
2014-Jan-20 13:31N 29°60' W 090°26'0 0.0
2014-Jan-20 12:28N 29°60' W 090°26'0 0.0
2014-Jan-20 11:22N 29°60' W 090°26'0 0.0
2014-Jan-20 10:31N 29°60' W 090°26'0 0.0
2014-Jan-20 09:28N 29°60' W 090°26'0 0.0
2014-Jan-20 08:10N 29°60' W 090°26'0 0.0
2014-Jan-20 07:31N 29°60' W 090°26'0 0.0
2014-Jan-20 06:31N 29°60' W 090°26'  

Dump ship's entire track history

sailing weather and tide predictions

Pacific Solarelle — V7UB8 — position and weather